createdAt,value
2022-09-20T00:01:33.334Z,0.60
2022-09-20T00:04:05.190Z,0.60
2022-09-20T00:06:34.506Z,0.68
2022-09-20T00:09:03.007Z,0.70
2022-09-20T00:11:33.259Z,0.70
2022-09-20T00:14:03.110Z,0.60
2022-09-20T00:16:36.906Z,0.50
2022-09-20T00:19:05.811Z,0.50
2022-09-20T00:21:36.398Z,0.98
2022-09-20T00:24:04.432Z,0.75
2022-09-20T00:26:31.119Z,0.57
2022-09-20T00:28:58.882Z,0.60
2022-09-20T00:31:26.949Z,0.60
2022-09-20T00:34:16.771Z,0.60
2022-09-20T00:36:46.396Z,0.65
2022-09-20T00:39:15.508Z,0.77
2022-09-20T00:41:42.861Z,0.68
2022-09-20T00:44:46.464Z,0.80
2022-09-20T00:47:52.043Z,0.50
2022-09-20T00:50:45.611Z,0.50
2022-09-20T00:53:31.401Z,1.45
2022-09-20T00:56:06.180Z,0.82
2022-09-20T00:58:39.462Z,0.60
2022-09-20T01:01:06.850Z,0.38
2022-09-20T01:03:38.291Z,0.80
2022-09-20T01:06:11.576Z,0.70
2022-09-20T01:08:39.929Z,0.60
2022-09-20T01:11:06.750Z,0.40
2022-09-20T01:13:33.456Z,0.80
2022-09-20T01:16:02.884Z,0.50
2022-09-20T01:18:36.748Z,0.60
2022-09-20T01:21:07.057Z,0.63
2022-09-20T01:24:02.091Z,0.98
2022-09-20T01:27:29.567Z,0.40
2022-09-20T01:30:09.742Z,0.45
2022-09-20T01:33:12.704Z,0.57
2022-09-20T01:35:43.116Z,0.68
2022-09-20T01:38:34.835Z,0.73
2022-09-20T01:41:18.036Z,0.63
2022-09-20T01:43:57.429Z,0.93
2022-09-20T01:46:36.220Z,0.90
2022-09-20T01:49:35.550Z,0.85
2022-09-20T01:52:17.229Z,1.10
2022-09-20T01:55:22.011Z,0.88
2022-09-20T01:58:28.968Z,1.08
2022-09-20T02:01:33.567Z,0.90
2022-09-20T02:04:30.604Z,0.93
2022-09-20T02:07:18.892Z,0.88
2022-09-20T02:10:08.716Z,0.70
2022-09-20T02:13:13.079Z,1.60
2022-09-20T02:16:10.630Z,1.05
2022-09-20T02:18:43.065Z,0.80
2022-09-20T02:21:34.317Z,1.23
2022-09-20T02:24:21.783Z,1.48
2022-09-20T02:27:18.012Z,2.10
2022-09-20T02:30:35.812Z,0.88
2022-09-20T02:34:09.563Z,0.70
2022-09-20T02:37:07.896Z,0.70
2022-09-20T02:40:15.654Z,0.90
2022-09-20T02:43:04.902Z,1.23
2022-09-20T02:46:06.679Z,0.88
2022-09-20T02:49:18.249Z,1.38
2022-09-20T02:52:14.309Z,0.80
2022-09-20T02:55:05.415Z,0.90
2022-09-20T02:57:54.275Z,0.80
2022-09-20T03:00:29.963Z,0.75
2022-09-20T03:03:30.167Z,0.90
2022-09-20T03:06:40.170Z,0.95
2022-09-20T03:09:34.973Z,1.05
2022-09-20T03:12:18.360Z,1.25
2022-09-20T03:15:19.985Z,0.90
2022-09-20T03:18:08.692Z,1.00
2022-09-20T03:21:38.125Z,1.00
2022-09-20T03:24:28.794Z,1.10
2022-09-20T03:27:24.380Z,1.17
2022-09-20T03:30:16.180Z,0.90
2022-09-20T03:33:05.129Z,1.10
2022-09-20T03:36:13.856Z,0.90
2022-09-20T03:39:36.443Z,0.95
2022-09-20T03:42:16.580Z,1.10
2022-09-20T03:45:40.539Z,1.23
2022-09-20T03:48:31.510Z,1.02
2022-09-20T03:51:33.106Z,1.38
2022-09-20T03:54:41.667Z,1.08
2022-09-20T03:57:27.744Z,1.13
2022-09-20T04:00:52.956Z,1.00
2022-09-20T04:04:04.779Z,0.90
2022-09-20T04:07:11.755Z,1.02
2022-09-20T04:10:03.255Z,0.63
2022-09-20T04:12:49.288Z,0.85
2022-09-20T04:15:41.864Z,0.95
2022-09-20T04:18:28.865Z,0.80
2022-09-20T04:21:17.523Z,0.90
2022-09-20T04:24:00.889Z,1.30
2022-09-20T04:26:32.152Z,0.90
2022-09-20T04:30:00.154Z,1.08
2022-09-20T04:32:56.240Z,1.10
2022-09-20T04:36:21.703Z,0.90
2022-09-20T04:39:05.401Z,1.20
2022-09-20T04:41:59.322Z,1.23
2022-09-20T04:44:47.440Z,0.90
2022-09-20T04:48:03.355Z,1.00
2022-09-20T04:51:10.350Z,1.05
2022-09-20T04:54:38.038Z,1.00
2022-09-20T04:58:02.020Z,1.00
2022-09-20T05:00:55.926Z,1.10
2022-09-20T05:04:12.708Z,0.93
2022-09-20T05:07:18.162Z,1.17
2022-09-20T05:10:23.362Z,1.25
2022-09-20T05:13:17.069Z,0.80
2022-09-20T05:16:02.171Z,0.95
2022-09-20T05:18:34.622Z,1.00
2022-09-20T05:21:29.051Z,1.10
2022-09-20T05:24:18.703Z,1.13
2022-09-20T05:27:26.627Z,1.20
2022-09-20T05:30:16.598Z,0.98
2022-09-20T05:33:28.148Z,1.00
2022-09-20T05:36:17.797Z,0.80
2022-09-20T05:39:03.571Z,0.80
2022-09-20T05:42:03.078Z,0.88
2022-09-20T05:44:58.054Z,1.20
2022-09-20T05:47:39.996Z,0.80
2022-09-20T05:51:04.569Z,0.95
2022-09-20T05:54:02.200Z,0.90
2022-09-20T05:56:58.004Z,0.95
2022-09-20T06:00:00.504Z,0.63
2022-09-20T06:02:51.805Z,0.93
2022-09-20T06:05:46.000Z,1.20
2022-09-20T06:08:18.632Z,0.63
2022-09-20T06:11:07.994Z,1.00
2022-09-20T06:14:06.330Z,1.00
2022-09-20T06:17:13.722Z,2.17
2022-09-20T06:20:04.602Z,1.07
2022-09-20T06:23:07.313Z,1.27
2022-09-20T06:25:57.190Z,2.00
2022-09-20T06:28:33.122Z,1.60
2022-09-20T06:31:00.275Z,5.90
2022-09-20T06:33:29.656Z,6.53
2022-09-20T06:36:28.295Z,4.03
2022-09-20T06:40:02.108Z,2.60
2022-09-20T06:42:32.890Z,2.43
2022-09-20T06:44:59.589Z,1.63
2022-09-20T06:47:26.952Z,1.93
2022-09-20T06:49:53.755Z,1.97
2022-09-20T06:52:24.995Z,1.45
2022-09-20T06:54:56.795Z,1.30
2022-09-20T06:57:38.316Z,1.55
2022-09-20T07:00:10.143Z,1.35
2022-09-20T07:02:36.938Z,1.30
2022-09-20T07:05:09.280Z,1.23
2022-09-20T07:07:36.174Z,2.05
2022-09-20T07:10:04.296Z,1.90
2022-09-20T07:12:33.882Z,1.60
2022-09-20T07:15:00.666Z,2.22
2022-09-20T07:17:27.456Z,1.70
2022-09-20T07:19:56.518Z,1.63
2022-09-20T07:22:23.642Z,1.45
2022-09-20T07:24:50.705Z,1.60
2022-09-20T07:27:17.534Z,1.40
2022-09-20T07:29:46.038Z,1.13
2022-09-20T07:32:17.075Z,2.85
2022-09-20T07:34:43.903Z,1.25
2022-09-20T07:37:11.591Z,0.98
2022-09-20T07:39:39.398Z,1.20
2022-09-20T07:42:15.726Z,0.80
2022-09-20T07:44:43.508Z,1.23
2022-09-20T07:47:11.193Z,1.08
2022-09-20T07:49:37.939Z,1.00
2022-09-20T07:52:04.804Z,1.13
2022-09-20T07:54:31.516Z,0.90
2022-09-20T07:56:58.216Z,0.70
2022-09-20T07:59:25.983Z,0.60
2022-09-20T08:01:53.052Z,0.98
2022-09-20T08:04:19.799Z,0.52
2022-09-20T08:06:49.159Z,0.88
2022-09-20T08:09:15.889Z,0.98
2022-09-20T08:11:44.060Z,0.43
2022-09-20T08:14:16.001Z,0.50
2022-09-20T08:16:47.281Z,0.50
2022-09-20T08:19:21.031Z,0.45
2022-09-20T08:21:49.909Z,0.52
2022-09-20T08:24:17.376Z,0.57
2022-09-20T08:26:44.869Z,0.90
2022-09-20T08:29:12.458Z,0.73
2022-09-20T08:31:42.722Z,0.40
2022-09-20T08:34:12.493Z,0.60
2022-09-20T08:36:47.326Z,0.68
2022-09-20T08:42:20.985Z,0.50
2022-09-20T08:45:03.776Z,0.50
2022-09-20T08:47:43.133Z,0.60
2022-09-20T08:50:17.556Z,1.85
2022-09-20T08:52:49.216Z,1.00
2022-09-20T08:55:24.193Z,0.77
2022-09-20T08:57:55.420Z,0.80
2022-09-20T09:00:28.021Z,0.90
2022-09-20T09:02:58.557Z,0.75
2022-09-20T09:05:37.670Z,0.60
2022-09-20T09:08:16.304Z,0.50
2022-09-20T09:10:55.146Z,0.60
2022-09-20T09:13:47.591Z,0.30
2022-09-20T09:16:30.354Z,0.50
2022-09-20T09:19:44.264Z,0.55
2022-09-20T09:22:15.300Z,1.85
2022-09-20T09:24:42.452Z,0.60
2022-09-20T09:27:19.277Z,0.60
2022-09-20T09:29:55.097Z,0.60
2022-09-20T09:32:33.047Z,0.88
2022-09-20T09:35:35.929Z,0.70
2022-09-20T09:38:03.111Z,0.98
2022-09-20T09:40:32.643Z,0.93
2022-09-20T09:43:04.072Z,0.65
2022-09-20T09:45:39.513Z,0.52
2022-09-20T09:48:33.409Z,0.70
2022-09-20T09:51:20.415Z,0.70
2022-09-20T09:53:51.270Z,0.40
2022-09-20T09:56:36.957Z,0.52
2022-09-20T09:59:22.530Z,0.40
2022-09-20T10:02:40.208Z,0.30
2022-09-20T10:05:34.173Z,0.80
2022-09-20T10:08:56.675Z,0.80
2022-09-20T10:12:05.086Z,0.80
2022-09-20T10:14:45.528Z,0.70
2022-09-20T10:18:13.809Z,0.60
2022-09-20T10:21:07.786Z,0.43
2022-09-20T10:24:23.209Z,0.30
2022-09-20T10:27:14.292Z,0.38
2022-09-20T10:30:10.281Z,0.25
2022-09-20T10:33:07.015Z,0.50
2022-09-20T10:36:25.884Z,0.65
2022-09-20T10:39:25.286Z,0.63
2022-09-20T10:42:32.858Z,0.65
2022-09-20T10:45:55.993Z,0.38
2022-09-20T10:48:31.595Z,0.52
2022-09-20T10:51:09.785Z,0.40
2022-09-20T10:54:08.272Z,0.30
2022-09-20T10:57:23.949Z,0.20
2022-09-20T11:00:28.913Z,0.50
2022-09-20T11:03:25.065Z,0.50
2022-09-20T11:06:36.112Z,0.60
2022-09-20T11:09:32.312Z,0.60
2022-09-20T11:12:36.733Z,0.50
2022-09-20T11:15:19.342Z,0.20
2022-09-20T11:18:09.696Z,0.57
2022-09-20T11:20:49.600Z,0.40
2022-09-20T11:23:29.186Z,0.25
2022-09-20T11:26:09.859Z,0.50
2022-09-20T11:28:55.039Z,0.68
2022-09-20T11:32:00.384Z,0.55
2022-09-20T11:34:40.888Z,0.85
2022-09-20T11:37:12.111Z,0.38
2022-09-20T11:39:54.514Z,0.60
2022-09-20T11:42:30.583Z,0.60
2022-09-20T11:44:57.422Z,0.50
2022-09-20T11:47:55.018Z,0.50
2022-09-20T11:50:51.376Z,0.40
2022-09-20T11:54:12.519Z,0.30
2022-09-20T11:56:41.845Z,0.70
2022-09-20T11:59:37.012Z,0.38
2022-09-20T12:02:28.975Z,0.45
2022-09-20T12:04:56.548Z,0.75
2022-09-20T12:07:40.004Z,0.80
2022-09-20T12:10:35.162Z,0.63
2022-09-20T12:13:24.376Z,0.65
2022-09-20T12:16:15.629Z,0.38
2022-09-20T12:18:54.737Z,1.40
2022-09-20T12:21:22.639Z,0.95
2022-09-20T12:24:19.077Z,0.40
2022-09-20T12:26:47.656Z,0.60
2022-09-20T12:29:23.457Z,0.52
2022-09-20T12:32:02.224Z,0.50
2022-09-20T12:34:37.104Z,0.68
2022-09-20T12:37:09.931Z,0.35
2022-09-20T12:39:52.561Z,0.77
2022-09-20T12:42:35.620Z,0.50
2022-09-20T12:45:19.008Z,0.43
2022-09-20T12:48:18.878Z,0.75
2022-09-20T12:51:24.778Z,0.40
2022-09-20T12:54:22.516Z,0.35
2022-09-20T12:56:49.426Z,0.43
2022-09-20T12:59:27.190Z,0.32
2022-09-20T13:01:54.071Z,0.40
2022-09-20T13:04:54.068Z,0.40
2022-09-20T13:07:53.355Z,0.63
2022-09-20T13:10:30.549Z,0.60
2022-09-20T13:13:44.255Z,0.30
2022-09-20T13:16:30.682Z,0.30
2022-09-20T13:19:23.048Z,0.40
2022-09-20T13:22:30.189Z,0.40
2022-09-20T13:25:17.311Z,0.40
2022-09-20T13:28:51.969Z,0.65
2022-09-20T13:31:25.543Z,0.88
2022-09-20T13:33:54.002Z,0.40
2022-09-20T13:36:31.600Z,0.40
2022-09-20T13:39:07.265Z,0.55
2022-09-20T13:41:40.527Z,0.50
2022-09-20T13:44:18.751Z,0.55
2022-09-20T13:46:51.368Z,0.93
2022-09-20T13:49:24.291Z,0.70
2022-09-20T13:51:54.822Z,0.45
2022-09-20T13:54:36.598Z,0.60
2022-09-20T13:57:18.847Z,0.20
2022-09-20T13:59:55.534Z,0.40
2022-09-20T14:02:34.073Z,0.30
2022-09-20T14:05:07.210Z,0.60
2022-09-20T14:07:36.379Z,0.60
2022-09-20T14:10:34.102Z,0.60
2022-09-20T14:13:07.298Z,0.38
2022-09-20T14:15:46.267Z,0.52
2022-09-20T14:18:22.806Z,0.50
2022-09-20T14:20:50.001Z,0.30
2022-09-20T14:23:29.435Z,0.60
2022-09-20T14:26:24.315Z,0.50
2022-09-20T14:28:51.848Z,0.50
2022-09-20T14:31:34.132Z,1.10
2022-09-20T14:34:05.868Z,0.70
2022-09-20T14:36:32.629Z,0.73
2022-09-20T14:39:04.789Z,0.77
2022-09-20T14:41:40.534Z,0.40
2022-09-20T14:44:44.117Z,0.50
2022-09-20T14:47:16.061Z,0.70
2022-09-20T14:49:45.998Z,0.90
2022-09-20T14:52:28.222Z,0.90
2022-09-20T14:55:28.140Z,1.10
2022-09-20T14:58:04.291Z,0.70
2022-09-20T15:00:47.715Z,0.52
2022-09-20T15:03:20.751Z,0.47
2022-09-20T15:05:50.908Z,0.63
2022-09-20T15:08:24.287Z,0.50
2022-09-20T15:10:57.319Z,0.60
2022-09-20T15:13:26.536Z,1.17
2022-09-20T15:16:01.483Z,0.45
2022-09-20T15:18:53.256Z,0.88
2022-09-20T15:21:22.719Z,0.55
2022-09-20T15:23:51.514Z,1.23
2022-09-20T15:26:31.249Z,1.50
2022-09-20T15:28:58.583Z,1.23
2022-09-20T15:31:25.437Z,0.50
2022-09-20T15:33:57.115Z,0.73
2022-09-20T15:36:32.025Z,0.70
2022-09-20T15:39:06.650Z,1.00
2022-09-20T15:41:40.240Z,1.15
2022-09-20T15:44:08.042Z,0.80
2022-09-20T15:46:38.396Z,1.00
2022-09-20T15:49:10.803Z,0.90
2022-09-20T15:51:51.143Z,0.82
2022-09-20T15:54:30.442Z,1.00
2022-09-20T15:57:25.114Z,0.65
2022-09-20T16:00:13.381Z,0.40
2022-09-20T16:08:23.785Z,0.50
2022-09-20T16:11:00.255Z,0.65
2022-09-20T16:13:30.532Z,0.47
2022-09-20T16:16:03.481Z,0.60
2022-09-20T16:18:49.852Z,1.13
2022-09-20T16:21:19.533Z,1.30
2022-09-20T16:23:56.839Z,0.55
2022-09-20T16:26:32.295Z,0.70
2022-09-20T16:28:59.015Z,1.58
2022-09-20T16:31:41.708Z,0.43
2022-09-20T16:34:31.471Z,0.73
2022-09-20T16:37:01.383Z,0.60
2022-09-20T16:39:31.019Z,0.50
2022-09-20T16:42:08.613Z,0.70
2022-09-20T16:44:44.647Z,0.70
2022-09-20T16:47:20.340Z,0.52
2022-09-20T16:49:50.145Z,0.50
2022-09-20T16:52:16.858Z,0.65
2022-09-20T16:54:43.610Z,0.55
2022-09-20T16:57:13.260Z,0.40
2022-09-20T16:59:40.709Z,0.50
2022-09-20T17:02:12.010Z,0.45
2022-09-20T17:04:40.163Z,0.85
2022-09-20T17:07:07.114Z,0.75
2022-09-20T17:09:33.811Z,0.75
2022-09-20T17:12:01.261Z,0.60
2022-09-20T17:14:28.033Z,0.60
2022-09-20T17:16:56.420Z,0.60
2022-09-20T17:19:28.727Z,0.47
2022-09-20T17:22:00.116Z,0.60
2022-09-20T17:24:30.111Z,0.77
2022-09-20T17:26:56.879Z,0.70
2022-09-20T17:29:27.769Z,0.70
2022-09-20T17:31:59.342Z,1.17
2022-09-20T17:34:27.941Z,1.20
2022-09-20T17:36:55.204Z,1.25
2022-09-20T17:39:22.216Z,1.00
2022-09-20T17:41:50.548Z,1.10
2022-09-20T17:44:17.567Z,0.68
2022-09-20T17:46:47.818Z,1.38
2022-09-20T17:49:19.242Z,0.63
2022-09-20T17:51:51.007Z,0.85
2022-09-20T17:54:19.193Z,0.93
2022-09-20T17:56:51.960Z,0.90
2022-09-20T17:59:20.358Z,1.50
2022-09-20T18:01:50.568Z,0.80
2022-09-20T18:04:18.376Z,0.73
2022-09-20T18:06:51.562Z,0.98
2022-09-20T18:09:23.184Z,0.80
2022-09-20T18:11:53.187Z,1.00
2022-09-20T18:14:26.065Z,0.85
2022-09-20T18:16:55.965Z,1.00
2022-09-20T18:19:23.019Z,0.93
2022-09-20T18:21:50.559Z,1.00
2022-09-20T18:24:17.356Z,1.27
2022-09-20T18:26:46.549Z,1.00
2022-09-20T18:29:17.804Z,1.63
2022-09-20T18:31:54.183Z,1.38
2022-09-20T18:34:32.190Z,1.30
2022-09-20T18:37:09.104Z,1.67
2022-09-20T18:39:40.190Z,2.05
2022-09-20T18:42:08.313Z,2.17
2022-09-20T18:44:36.244Z,2.60
2022-09-20T18:47:05.652Z,2.58
2022-09-20T18:49:33.307Z,2.25
2022-09-20T18:52:00.656Z,1.83
2022-09-20T18:54:32.061Z,2.70
2022-09-20T18:56:59.639Z,2.70
2022-09-20T18:59:28.093Z,3.20
2022-09-20T19:02:16.500Z,2.28
2022-09-20T19:05:08.752Z,1.98
2022-09-20T19:08:01.143Z,2.22
2022-09-20T19:10:48.511Z,2.13
2022-09-20T19:13:29.607Z,1.90
2022-09-20T19:16:21.083Z,2.10
2022-09-20T19:19:09.137Z,1.90
2022-09-20T19:21:57.375Z,1.75
2022-09-20T19:24:59.493Z,2.25
2022-09-20T19:27:26.760Z,2.10
2022-09-20T19:29:54.488Z,2.20
2022-09-20T19:32:25.930Z,1.92
2022-09-20T19:34:56.167Z,2.20
2022-09-20T19:37:52.777Z,2.20
2022-09-20T19:40:40.755Z,2.92
2022-09-20T19:43:26.320Z,2.42
2022-09-20T19:46:02.043Z,3.50
2022-09-20T19:48:56.785Z,3.90
2022-09-20T19:51:26.061Z,5.80
2022-09-20T19:53:53.520Z,5.30
2022-09-20T19:56:39.035Z,6.00
2022-09-20T19:59:06.506Z,7.18
2022-09-20T20:01:33.629Z,6.88
2022-09-20T20:04:00.862Z,6.63
2022-09-20T20:06:59.033Z,7.50
2022-09-20T20:09:55.240Z,5.93
2022-09-20T20:13:36.261Z,7.50
2022-09-20T20:16:08.049Z,6.47
2022-09-20T20:19:14.785Z,7.00
2022-09-20T20:21:58.158Z,6.78
2022-09-20T20:24:45.791Z,6.65
2022-09-20T20:27:12.663Z,7.07
2022-09-20T20:29:39.407Z,7.47
2022-09-20T20:32:06.068Z,7.13
2022-09-20T20:34:34.567Z,6.80
2022-09-20T20:37:01.316Z,6.13
2022-09-20T20:39:31.780Z,6.18
2022-09-20T20:42:02.455Z,6.63
2022-09-20T20:44:35.828Z,6.47
2022-09-20T20:47:05.924Z,5.75
2022-09-20T20:49:33.389Z,6.43
2022-09-20T20:52:05.905Z,5.55
2022-09-20T20:54:32.951Z,6.57
2022-09-20T20:57:02.076Z,6.35
2022-09-20T20:59:28.753Z,5.97
2022-09-20T21:01:56.106Z,7.20
2022-09-20T21:04:24.938Z,6.95
2022-09-20T21:06:51.689Z,8.65
2022-09-20T21:09:18.369Z,12.65
2022-09-20T21:11:46.557Z,14.70
2022-09-20T21:14:13.299Z,16.45
2022-09-20T21:16:43.103Z,18.35
2022-09-20T21:19:14.726Z,20.27
2022-09-20T21:21:44.865Z,20.10
2022-09-20T21:24:17.355Z,20.02
2022-09-20T21:26:46.391Z,19.30
2022-09-20T21:29:16.529Z,19.55
2022-09-20T21:31:46.607Z,17.15
2022-09-20T21:34:15.611Z,11.73
2022-09-20T21:36:44.523Z,8.43
2022-09-20T21:39:11.754Z,5.60
2022-09-20T21:41:40.227Z,4.00
2022-09-20T21:44:10.636Z,4.30
2022-09-20T21:46:40.959Z,4.82
2022-09-20T21:49:11.142Z,5.30
2022-09-20T21:51:45.078Z,6.32
2022-09-20T21:54:11.802Z,5.18
2022-09-20T21:56:47.265Z,5.90
2022-09-20T21:59:13.948Z,4.78
2022-09-20T22:01:40.934Z,4.50
2022-09-20T22:04:12.210Z,5.47
2022-09-20T22:06:42.393Z,5.55
2022-09-20T22:09:14.660Z,4.47
2022-09-20T22:11:46.325Z,4.30
2022-09-20T22:14:16.394Z,4.75
2022-09-20T22:16:45.879Z,4.68
2022-09-20T22:19:17.158Z,4.45
2022-09-20T22:21:48.027Z,4.45
2022-09-20T22:24:16.543Z,5.70
2022-09-20T22:26:50.434Z,3.85
2022-09-20T22:29:18.386Z,3.60
2022-09-20T22:31:47.719Z,3.40
2022-09-20T22:34:38.481Z,3.20
2022-09-20T22:37:05.343Z,2.92
2022-09-20T22:39:32.172Z,2.65
2022-09-20T22:41:58.992Z,3.05
2022-09-20T22:44:27.051Z,3.25
2022-09-20T22:46:53.886Z,3.17
2022-09-20T22:49:20.707Z,3.00
2022-09-20T22:51:47.553Z,2.75
2022-09-20T22:54:14.367Z,3.17
2022-09-20T22:56:42.343Z,2.90
2022-09-20T22:59:18.496Z,2.75
2022-09-20T23:01:48.005Z,3.17
2022-09-20T23:04:19.563Z,3.00
2022-09-20T23:06:54.957Z,2.75
2022-09-20T23:09:26.320Z,4.28
2022-09-20T23:11:53.371Z,2.53
2022-09-20T23:14:21.980Z,2.58
2022-09-20T23:16:50.518Z,2.30
2022-09-20T23:19:18.003Z,2.25
2022-09-20T23:21:45.267Z,2.17
2022-09-20T23:24:15.071Z,2.40
2022-09-20T23:26:45.164Z,5.63
2022-09-20T23:29:16.952Z,4.88
2022-09-20T23:31:47.093Z,3.45
2022-09-20T23:34:18.887Z,3.63
2022-09-20T23:36:46.824Z,2.42
2022-09-20T23:39:14.842Z,3.17
2022-09-20T23:41:43.246Z,2.65
2022-09-20T23:44:12.909Z,2.20
2022-09-20T23:46:39.906Z,1.67
2022-09-20T23:49:09.173Z,1.75
2022-09-20T23:51:37.307Z,1.75
2022-09-20T23:54:04.667Z,1.60
2022-09-20T23:56:32.246Z,1.50
2022-09-20T23:58:59.139Z,1.50
